sensor_id;sensor_type;location;lat;lon;timestamp;P1;durP1;ratioP1;P2;durP2;ratioP2
10565;SDS011;5331;48.148;16.326;2023-06-05T00:01:20;8.82;;;7.93;;
10565;SDS011;5331;48.148;16.326;2023-06-05T00:03:49;7.53;;;6.78;;
10565;SDS011;5331;48.148;16.326;2023-06-05T00:06:18;9.32;;;8.30;;
10565;SDS011;5331;48.148;16.326;2023-06-05T00:08:45;9.18;;;8.27;;
10565;SDS011;5331;48.148;16.326;2023-06-05T00:11:12;9.77;;;8.77;;
10565;SDS011;5331;48.148;16.326;2023-06-05T00:13:39;9.05;;;8.15;;
10565;SDS011;5331;48.148;16.326;2023-06-05T00:16:06;10.20;;;9.18;;
10565;SDS011;5331;48.148;16.326;2023-06-05T00:18:33;9.70;;;8.50;;
10565;SDS011;5331;48.148;16.326;2023-06-05T00:21:02;8.85;;;7.90;;
10565;SDS011;5331;48.148;16.326;2023-06-05T00:23:29;9.80;;;8.38;;
10565;SDS011;5331;48.148;16.326;2023-06-05T00:25:57;10.40;;;9.35;;
10565;SDS011;5331;48.148;16.326;2023-06-05T00:28:23;10.77;;;9.52;;
10565;SDS011;5331;48.148;16.326;2023-06-05T00:30:51;11.35;;;10.10;;
10565;SDS011;5331;48.148;16.326;2023-06-05T00:33:17;11.07;;;9.98;;
10565;SDS011;5331;48.148;16.326;2023-06-05T00:35:44;11.88;;;10.75;;
10565;SDS011;5331;48.148;16.326;2023-06-05T00:38:13;11.10;;;10.05;;
10565;SDS011;5331;48.148;16.326;2023-06-05T00:40:40;13.13;;;11.38;;
10565;SDS011;5331;48.148;16.326;2023-06-05T00:43:07;11.13;;;9.80;;
10565;SDS011;5331;48.148;16.326;2023-06-05T00:45:34;12.20;;;10.90;;
10565;SDS011;5331;48.148;16.326;2023-06-05T00:48:01;11.05;;;9.95;;
10565;SDS011;5331;48.148;16.326;2023-06-05T00:50:28;12.73;;;11.38;;
10565;SDS011;5331;48.148;16.326;2023-06-05T00:52:57;14.52;;;11.93;;
10565;SDS011;5331;48.148;16.326;2023-06-05T00:55:26;14.23;;;12.82;;
10565;SDS011;5331;48.148;16.326;2023-06-05T00:57:53;14.68;;;13.13;;
10565;SDS011;5331;48.148;16.326;2023-06-05T01:00:21;15.27;;;13.65;;
10565;SDS011;5331;48.148;16.326;2023-06-05T01:02:48;14.52;;;13.05;;
10565;SDS011;5331;48.148;16.326;2023-06-05T01:05:18;12.77;;;11.55;;
10565;SDS011;5331;48.148;16.326;2023-06-05T01:07:45;12.85;;;11.75;;
10565;SDS011;5331;48.148;16.326;2023-06-05T01:10:13;13.93;;;12.48;;
10565;SDS011;5331;48.148;16.326;2023-06-05T01:12:43;12.85;;;11.48;;
10565;SDS011;5331;48.148;16.326;2023-06-05T01:15:17;13.20;;;11.90;;
10565;SDS011;5331;48.148;16.326;2023-06-05T01:17:54;14.23;;;12.93;;
10565;SDS011;5331;48.148;16.326;2023-06-05T01:20:22;13.70;;;12.40;;
10565;SDS011;5331;48.148;16.326;2023-06-05T01:22:50;14.02;;;12.70;;
10565;SDS011;5331;48.148;16.326;2023-06-05T01:25:18;13.02;;;11.73;;
10565;SDS011;5331;48.148;16.326;2023-06-05T01:27:54;16.33;;;14.63;;
10565;SDS011;5331;48.148;16.326;2023-06-05T01:30:27;19.50;;;14.75;;
10565;SDS011;5331;48.148;16.326;2023-06-05T01:33:01;15.88;;;14.27;;
10565;SDS011;5331;48.148;16.326;2023-06-05T01:35:33;15.90;;;14.30;;
10565;SDS011;5331;48.148;16.326;2023-06-05T01:38:02;15.82;;;14.13;;
10565;SDS011;5331;48.148;16.326;2023-06-05T01:40:31;14.90;;;13.30;;
10565;SDS011;5331;48.148;16.326;2023-06-05T01:43:00;17.73;;;15.60;;
10565;SDS011;5331;48.148;16.326;2023-06-05T01:45:28;17.83;;;16.02;;
10565;SDS011;5331;48.148;16.326;2023-06-05T01:47:56;18.42;;;15.63;;
10565;SDS011;5331;48.148;16.326;2023-06-05T01:50:24;16.17;;;14.60;;
10565;SDS011;5331;48.148;16.326;2023-06-05T01:52:52;17.50;;;15.70;;
10565;SDS011;5331;48.148;16.326;2023-06-05T01:55:21;18.10;;;16.30;;
10565;SDS011;5331;48.148;16.326;2023-06-05T01:57:49;18.20;;;16.40;;
10565;SDS011;5331;48.148;16.326;2023-06-05T02:00:16;17.83;;;16.00;;
10565;SDS011;5331;48.148;16.326;2023-06-05T02:02:44;18.67;;;16.70;;
10565;SDS011;5331;48.148;16.326;2023-06-05T02:05:13;18.17;;;16.27;;
10565;SDS011;5331;48.148;16.326;2023-06-05T02:07:41;19.70;;;17.75;;
10565;SDS011;5331;48.148;16.326;2023-06-05T02:10:12;20.35;;;18.17;;
10565;SDS011;5331;48.148;16.326;2023-06-05T02:12:40;20.38;;;17.58;;
10565;SDS011;5331;48.148;16.326;2023-06-05T02:15:09;19.85;;;17.85;;
10565;SDS011;5331;48.148;16.326;2023-06-05T02:17:38;21.20;;;18.27;;
10565;SDS011;5331;48.148;16.326;2023-06-05T02:20:10;21.80;;;19.60;;
10565;SDS011;5331;48.148;16.326;2023-06-05T02:22:38;20.55;;;18.25;;
10565;SDS011;5331;48.148;16.326;2023-06-05T02:25:05;21.17;;;18.45;;
10565;SDS011;5331;48.148;16.326;2023-06-05T02:27:33;20.42;;;18.33;;
10565;SDS011;5331;48.148;16.326;2023-06-05T02:30:01;19.63;;;17.67;;
10565;SDS011;5331;48.148;16.326;2023-06-05T02:32:28;20.45;;;18.33;;
10565;SDS011;5331;48.148;16.326;2023-06-05T02:34:56;20.77;;;18.58;;
10565;SDS011;5331;48.148;16.326;2023-06-05T02:37:25;20.73;;;18.50;;
10565;SDS011;5331;48.148;16.326;2023-06-05T02:39:53;21.10;;;18.88;;
10565;SDS011;5331;48.148;16.326;2023-06-05T02:42:20;21.10;;;18.92;;
10565;SDS011;5331;48.148;16.326;2023-06-05T02:44:47;20.70;;;18.50;;
10565;SDS011;5331;48.148;16.326;2023-06-05T02:47:16;19.90;;;17.25;;
10565;SDS011;5331;48.148;16.326;2023-06-05T02:49:43;19.50;;;17.27;;
10565;SDS011;5331;48.148;16.326;2023-06-05T02:52:10;20.20;;;18.15;;
10565;SDS011;5331;48.148;16.326;2023-06-05T02:54:37;19.13;;;17.20;;
10565;SDS011;5331;48.148;16.326;2023-06-05T02:57:04;18.80;;;16.77;;
10565;SDS011;5331;48.148;16.326;2023-06-05T02:59:31;19.65;;;16.17;;
10565;SDS011;5331;48.148;16.326;2023-06-05T03:01:58;17.80;;;15.88;;
10565;SDS011;5331;48.148;16.326;2023-06-05T03:04:27;16.88;;;15.10;;
10565;SDS011;5331;48.148;16.326;2023-06-05T03:06:54;17.33;;;15.43;;
10565;SDS011;5331;48.148;16.326;2023-06-05T03:09:21;17.33;;;15.63;;
10565;SDS011;5331;48.148;16.326;2023-06-05T03:11:49;17.20;;;15.43;;
10565;SDS011;5331;48.148;16.326;2023-06-05T03:14:17;15.43;;;13.88;;
10565;SDS011;5331;48.148;16.326;2023-06-05T03:16:44;16.10;;;14.50;;
10565;SDS011;5331;48.148;16.326;2023-06-05T03:19:11;16.05;;;14.10;;
10565;SDS011;5331;48.148;16.326;2023-06-05T03:21:39;15.95;;;14.25;;
10565;SDS011;5331;48.148;16.326;2023-06-05T03:24:09;16.55;;;14.75;;
10565;SDS011;5331;48.148;16.326;2023-06-05T03:26:38;14.30;;;12.77;;
10565;SDS011;5331;48.148;16.326;2023-06-05T03:29:05;16.42;;;14.73;;
10565;SDS011;5331;48.148;16.326;2023-06-05T03:31:32;18.77;;;15.82;;
10565;SDS011;5331;48.148;16.326;2023-06-05T03:34:00;16.42;;;14.70;;
10565;SDS011;5331;48.148;16.326;2023-06-05T03:36:28;19.17;;;14.68;;
10565;SDS011;5331;48.148;16.326;2023-06-05T03:38:59;16.90;;;14.45;;
10565;SDS011;5331;48.148;16.326;2023-06-05T03:41:26;17.17;;;15.38;;
10565;SDS011;5331;48.148;16.326;2023-06-05T03:43:53;17.85;;;15.75;;
10565;SDS011;5331;48.148;16.326;2023-06-05T03:46:22;17.70;;;15.80;;
10565;SDS011;5331;48.148;16.326;2023-06-05T03:48:49;16.10;;;14.45;;
10565;SDS011;5331;48.148;16.326;2023-06-05T03:51:18;17.30;;;14.98;;
10565;SDS011;5331;48.148;16.326;2023-06-05T03:53:45;14.82;;;13.43;;
10565;SDS011;5331;48.148;16.326;2023-06-05T03:56:21;16.15;;;14.55;;
10565;SDS011;5331;48.148;16.326;2023-06-05T03:58:48;17.67;;;15.88;;
10565;SDS011;5331;48.148;16.326;2023-06-05T04:01:15;17.40;;;14.93;;
10565;SDS011;5331;48.148;16.326;2023-06-05T04:03:42;16.50;;;14.52;;
10565;SDS011;5331;48.148;16.326;2023-06-05T04:06:09;16.00;;;14.07;;
10565;SDS011;5331;48.148;16.326;2023-06-05T04:08:36;15.63;;;14.02;;
10565;SDS011;5331;48.148;16.326;2023-06-05T04:11:03;16.48;;;14.05;;
10565;SDS011;5331;48.148;16.326;2023-06-05T04:13:31;15.38;;;13.43;;
10565;SDS011;5331;48.148;16.326;2023-06-05T04:15:58;14.70;;;13.13;;
10565;SDS011;5331;48.148;16.326;2023-06-05T04:18:27;16.27;;;13.65;;
10565;SDS011;5331;48.148;16.326;2023-06-05T04:20:54;13.50;;;12.10;;
10565;SDS011;5331;48.148;16.326;2023-06-05T04:23:21;13.82;;;12.43;;
10565;SDS011;5331;48.148;16.326;2023-06-05T04:25:48;13.85;;;12.18;;
10565;SDS011;5331;48.148;16.326;2023-06-05T04:28:18;12.82;;;11.48;;
10565;SDS011;5331;48.148;16.326;2023-06-05T04:30:48;14.48;;;12.00;;
10565;SDS011;5331;48.148;16.326;2023-06-05T04:33:15;11.95;;;10.75;;
10565;SDS011;5331;48.148;16.326;2023-06-05T04:35:42;12.32;;;10.90;;
10565;SDS011;5331;48.148;16.326;2023-06-05T04:38:09;11.10;;;10.00;;
10565;SDS011;5331;48.148;16.326;2023-06-05T04:40:36;11.57;;;10.10;;
10565;SDS011;5331;48.148;16.326;2023-06-05T04:43:03;11.70;;;9.55;;
10565;SDS011;5331;48.148;16.326;2023-06-05T04:45:31;10.98;;;9.82;;
10565;SDS011;5331;48.148;16.326;2023-06-05T04:47:59;11.10;;;10.00;;
10565;SDS011;5331;48.148;16.326;2023-06-05T04:50:26;10.90;;;9.55;;
10565;SDS011;5331;48.148;16.326;2023-06-05T04:52:55;10.07;;;9.07;;
10565;SDS011;5331;48.148;16.326;2023-06-05T04:55:22;11.50;;;9.35;;
10565;SDS011;5331;48.148;16.326;2023-06-05T04:57:49;10.32;;;9.00;;
10565;SDS011;5331;48.148;16.326;2023-06-05T05:00:16;10.35;;;9.07;;
10565;SDS011;5331;48.148;16.326;2023-06-05T05:02:44;10.13;;;8.55;;
10565;SDS011;5331;48.148;16.326;2023-06-05T05:05:12;8.98;;;8.02;;
10565;SDS011;5331;48.148;16.326;2023-06-05T05:07:40;10.10;;;8.32;;
10565;SDS011;5331;48.148;16.326;2023-06-05T05:10:07;9.35;;;8.45;;
10565;SDS011;5331;48.148;16.326;2023-06-05T05:12:35;9.63;;;8.73;;
10565;SDS011;5331;48.148;16.326;2023-06-05T05:15:03;10.18;;;8.85;;
10565;SDS011;5331;48.148;16.326;2023-06-05T05:17:31;9.35;;;8.45;;
10565;SDS011;5331;48.148;16.326;2023-06-05T05:19:58;11.25;;;8.57;;
10565;SDS011;5331;48.148;16.326;2023-06-05T05:22:27;9.98;;;8.93;;
10565;SDS011;5331;48.148;16.326;2023-06-05T05:24:54;10.07;;;8.52;;
10565;SDS011;5331;48.148;16.326;2023-06-05T05:27:21;9.27;;;8.23;;
10565;SDS011;5331;48.148;16.326;2023-06-05T05:29:49;9.93;;;8.93;;
10565;SDS011;5331;48.148;16.326;2023-06-05T05:32:16;10.60;;;9.20;;
10565;SDS011;5331;48.148;16.326;2023-06-05T05:34:43;10.70;;;8.80;;
10565;SDS011;5331;48.148;16.326;2023-06-05T05:37:11;10.05;;;8.60;;
10565;SDS011;5331;48.148;16.326;2023-06-05T05:39:40;11.02;;;8.98;;
10565;SDS011;5331;48.148;16.326;2023-06-05T05:42:07;10.30;;;9.05;;
10565;SDS011;5331;48.148;16.326;2023-06-05T05:44:34;12.73;;;9.65;;
10565;SDS011;5331;48.148;16.326;2023-06-05T05:47:01;10.18;;;8.95;;
10565;SDS011;5331;48.148;16.326;2023-06-05T05:49:27;10.20;;;9.20;;
10565;SDS011;5331;48.148;16.326;2023-06-05T05:51:54;9.75;;;8.85;;
10565;SDS011;5331;48.148;16.326;2023-06-05T05:54:29;13.32;;;10.35;;
10565;SDS011;5331;48.148;16.326;2023-06-05T05:56:57;11.45;;;8.70;;
10565;SDS011;5331;48.148;16.326;2023-06-05T05:59:27;10.52;;;8.60;;
10565;SDS011;5331;48.148;16.326;2023-06-05T06:02:03;10.95;;;9.02;;
10565;SDS011;5331;48.148;16.326;2023-06-05T06:04:47;10.00;;;8.63;;
10565;SDS011;5331;48.148;16.326;2023-06-05T06:07:14;11.27;;;9.35;;
10565;SDS011;5331;48.148;16.326;2023-06-05T06:09:42;9.82;;;7.80;;
10565;SDS011;5331;48.148;16.326;2023-06-05T06:12:12;8.65;;;7.80;;
10565;SDS011;5331;48.148;16.326;2023-06-05T06:14:40;8.82;;;7.70;;
10565;SDS011;5331;48.148;16.326;2023-06-05T06:17:07;9.40;;;7.40;;
10565;SDS011;5331;48.148;16.326;2023-06-05T06:19:39;9.10;;;7.80;;
10565;SDS011;5331;48.148;16.326;2023-06-05T06:22:07;12.98;;;8.65;;
10565;SDS011;5331;48.148;16.326;2023-06-05T06:24:37;8.40;;;7.60;;
10565;SDS011;5331;48.148;16.326;2023-06-05T06:27:04;8.13;;;7.32;;
10565;SDS011;5331;48.148;16.326;2023-06-05T06:29:32;8.90;;;7.07;;
10565;SDS011;5331;48.148;16.326;2023-06-05T06:31:59;8.73;;;7.10;;
10565;SDS011;5331;48.148;16.326;2023-06-05T06:34:26;7.20;;;6.50;;
10565;SDS011;5331;48.148;16.326;2023-06-05T06:36:54;7.80;;;7.00;;
10565;SDS011;5331;48.148;16.326;2023-06-05T06:39:21;8.00;;;7.22;;
10565;SDS011;5331;48.148;16.326;2023-06-05T06:41:49;7.65;;;6.65;;
10565;SDS011;5331;48.148;16.326;2023-06-05T06:44:18;7.38;;;6.68;;
10565;SDS011;5331;48.148;16.326;2023-06-05T06:46:46;7.43;;;6.70;;
10565;SDS011;5331;48.148;16.326;2023-06-05T06:49:15;8.18;;;7.15;;
10565;SDS011;5331;48.148;16.326;2023-06-05T06:51:41;8.57;;;7.15;;
10565;SDS011;5331;48.148;16.326;2023-06-05T06:54:09;7.78;;;7.05;;
10565;SDS011;5331;48.148;16.326;2023-06-05T06:56:36;8.95;;;7.10;;
10565;SDS011;5331;48.148;16.326;2023-06-05T06:59:10;9.13;;;7.80;;
10565;SDS011;5331;48.148;16.326;2023-06-05T07:01:41;8.20;;;7.38;;
10565;SDS011;5331;48.148;16.326;2023-06-05T07:04:12;7.72;;;7.00;;
10565;SDS011;5331;48.148;16.326;2023-06-05T07:06:42;8.35;;;7.53;;
10565;SDS011;5331;48.148;16.326;2023-06-05T07:11:39;8.98;;;8.05;;
10565;SDS011;5331;48.148;16.326;2023-06-05T07:14:06;8.93;;;8.02;;
10565;SDS011;5331;48.148;16.326;2023-06-05T07:16:33;8.70;;;7.90;;
10565;SDS011;5331;48.148;16.326;2023-06-05T07:19:01;8.30;;;7.47;;
10565;SDS011;5331;48.148;16.326;2023-06-05T07:21:30;8.50;;;7.80;;
10565;SDS011;5331;48.148;16.326;2023-06-05T07:24:00;8.73;;;7.82;;
10565;SDS011;5331;48.148;16.326;2023-06-05T07:26:28;8.98;;;7.50;;
10565;SDS011;5331;48.148;16.326;2023-06-05T07:28:57;8.60;;;7.72;;
10565;SDS011;5331;48.148;16.326;2023-06-05T07:31:24;8.48;;;7.50;;
10565;SDS011;5331;48.148;16.326;2023-06-05T07:33:51;9.13;;;8.07;;
10565;SDS011;5331;48.148;16.326;2023-06-05T07:36:18;8.88;;;8.07;;
10565;SDS011;5331;48.148;16.326;2023-06-05T07:38:57;9.10;;;8.20;;
10565;SDS011;5331;48.148;16.326;2023-06-05T07:41:24;9.20;;;8.27;;
10565;SDS011;5331;48.148;16.326;2023-06-05T07:43:51;9.32;;;8.35;;
10565;SDS011;5331;48.148;16.326;2023-06-05T07:46:19;10.05;;;9.15;;
10565;SDS011;5331;48.148;16.326;2023-06-05T07:48:46;10.55;;;9.55;;
10565;SDS011;5331;48.148;16.326;2023-06-05T07:51:13;10.05;;;9.05;;
10565;SDS011;5331;48.148;16.326;2023-06-05T07:53:44;9.68;;;8.77;;
10565;SDS011;5331;48.148;16.326;2023-06-05T07:56:12;9.35;;;8.45;;
10565;SDS011;5331;48.148;16.326;2023-06-05T07:58:41;9.55;;;8.25;;
10565;SDS011;5331;48.148;16.326;2023-06-05T08:01:09;8.70;;;7.93;;
10565;SDS011;5331;48.148;16.326;2023-06-05T08:03:37;9.40;;;8.50;;
10565;SDS011;5331;48.148;16.326;2023-06-05T08:06:04;10.65;;;8.00;;
10565;SDS011;5331;48.148;16.326;2023-06-05T08:08:31;10.20;;;7.78;;
10565;SDS011;5331;48.148;16.326;2023-06-05T08:10:58;8.98;;;8.07;;
10565;SDS011;5331;48.148;16.326;2023-06-05T08:13:26;8.32;;;7.63;;
10565;SDS011;5331;48.148;16.326;2023-06-05T08:15:54;8.82;;;7.93;;
10565;SDS011;5331;48.148;16.326;2023-06-05T08:18:21;10.00;;;9.10;;
10565;SDS011;5331;48.148;16.326;2023-06-05T08:20:57;9.27;;;8.32;;
10565;SDS011;5331;48.148;16.326;2023-06-05T08:23:24;9.52;;;8.50;;
10565;SDS011;5331;48.148;16.326;2023-06-05T08:25:52;9.75;;;8.00;;
10565;SDS011;5331;48.148;16.326;2023-06-05T08:28:20;8.23;;;7.43;;
10565;SDS011;5331;48.148;16.326;2023-06-05T08:30:51;7.95;;;7.25;;
10565;SDS011;5331;48.148;16.326;2023-06-05T08:33:18;8.98;;;6.53;;
10565;SDS011;5331;48.148;16.326;2023-06-05T08:35:46;7.50;;;6.80;;
10565;SDS011;5331;48.148;16.326;2023-06-05T08:38:13;6.60;;;5.95;;
10565;SDS011;5331;48.148;16.326;2023-06-05T08:40:40;6.53;;;5.90;;
10565;SDS011;5331;48.148;16.326;2023-06-05T08:43:13;7.13;;;6.43;;
10565;SDS011;5331;48.148;16.326;2023-06-05T08:45:40;7.63;;;6.22;;
10565;SDS011;5331;48.148;16.326;2023-06-05T08:48:08;7.07;;;6.47;;
10565;SDS011;5331;48.148;16.326;2023-06-05T08:50:39;6.95;;;6.28;;
10565;SDS011;5331;48.148;16.326;2023-06-05T08:53:08;6.85;;;6.35;;
10565;SDS011;5331;48.148;16.326;2023-06-05T08:55:38;7.32;;;6.10;;
10565;SDS011;5331;48.148;16.326;2023-06-05T08:58:05;6.90;;;6.28;;
10565;SDS011;5331;48.148;16.326;2023-06-05T09:00:33;6.25;;;5.55;;
10565;SDS011;5331;48.148;16.326;2023-06-05T09:05:50;8.50;;;6.38;;
10565;SDS011;5331;48.148;16.326;2023-06-05T09:08:19;6.65;;;5.95;;
10565;SDS011;5331;48.148;16.326;2023-06-05T09:10:56;6.55;;;5.95;;
10565;SDS011;5331;48.148;16.326;2023-06-05T09:13:50;8.23;;;6.30;;
10565;SDS011;5331;48.148;16.326;2023-06-05T09:16:19;6.75;;;6.05;;
10565;SDS011;5331;48.148;16.326;2023-06-05T09:18:54;6.43;;;5.93;;
10565;SDS011;5331;48.148;16.326;2023-06-05T09:21:24;6.57;;;5.88;;
10565;SDS011;5331;48.148;16.326;2023-06-05T09:24:11;5.93;;;5.43;;
10565;SDS011;5331;48.148;16.326;2023-06-05T09:26:46;7.72;;;5.55;;
10565;SDS011;5331;48.148;16.326;2023-06-05T09:29:24;7.90;;;5.80;;
10565;SDS011;5331;48.148;16.326;2023-06-05T09:31:57;6.32;;;5.72;;
10565;SDS011;5331;48.148;16.326;2023-06-05T09:34:28;10.18;;;5.97;;
10565;SDS011;5331;48.148;16.326;2023-06-05T09:36:56;6.18;;;5.57;;
10565;SDS011;5331;48.148;16.326;2023-06-05T09:39:25;6.13;;;5.60;;
10565;SDS011;5331;48.148;16.326;2023-06-05T09:41:53;6.50;;;5.90;;
10565;SDS011;5331;48.148;16.326;2023-06-05T09:44:20;6.72;;;5.97;;
10565;SDS011;5331;48.148;16.326;2023-06-05T09:46:51;7.13;;;5.68;;
10565;SDS011;5331;48.148;16.326;2023-06-05T09:49:20;7.00;;;6.22;;
10565;SDS011;5331;48.148;16.326;2023-06-05T09:51:49;6.20;;;5.63;;
10565;SDS011;5331;48.148;16.326;2023-06-05T09:54:16;6.32;;;5.78;;
10565;SDS011;5331;48.148;16.326;2023-06-05T09:56:45;7.85;;;5.60;;
10565;SDS011;5331;48.148;16.326;2023-06-05T09:59:16;6.78;;;6.18;;
10565;SDS011;5331;48.148;16.326;2023-06-05T10:01:47;6.72;;;5.57;;
10565;SDS011;5331;48.148;16.326;2023-06-05T10:04:20;7.82;;;7.07;;
10565;SDS011;5331;48.148;16.326;2023-06-05T10:06:52;7.45;;;6.75;;
10565;SDS011;5331;48.148;16.326;2023-06-05T10:09:21;9.05;;;7.53;;
10565;SDS011;5331;48.148;16.326;2023-06-05T10:11:50;8.05;;;7.13;;
10565;SDS011;5331;48.148;16.326;2023-06-05T10:14:20;6.55;;;5.95;;
10565;SDS011;5331;48.148;16.326;2023-06-05T10:16:48;6.93;;;6.07;;
10565;SDS011;5331;48.148;16.326;2023-06-05T10:19:17;7.40;;;6.70;;
10565;SDS011;5331;48.148;16.326;2023-06-05T10:21:46;6.75;;;6.13;;
10565;SDS011;5331;48.148;16.326;2023-06-05T10:24:17;6.68;;;6.00;;
10565;SDS011;5331;48.148;16.326;2023-06-05T10:26:54;9.10;;;5.82;;
10565;SDS011;5331;48.148;16.326;2023-06-05T10:29:52;6.72;;;5.80;;
10565;SDS011;5331;48.148;16.326;2023-06-05T10:32:40;6.35;;;5.45;;
10565;SDS011;5331;48.148;16.326;2023-06-05T10:35:22;6.20;;;5.60;;
10565;SDS011;5331;48.148;16.326;2023-06-05T10:38:01;6.22;;;5.63;;
10565;SDS011;5331;48.148;16.326;2023-06-05T10:40:36;7.00;;;6.40;;
10565;SDS011;5331;48.148;16.326;2023-06-05T10:45:53;6.20;;;5.70;;
10565;SDS011;5331;48.148;16.326;2023-06-05T10:48:21;6.35;;;5.75;;
10565;SDS011;5331;48.148;16.326;2023-06-05T10:51:31;7.30;;;6.03;;
10565;SDS011;5331;48.148;16.326;2023-06-05T10:53:59;7.82;;;6.20;;
10565;SDS011;5331;48.148;16.326;2023-06-05T10:59:26;7.00;;;6.30;;
10565;SDS011;5331;48.148;16.326;2023-06-05T11:05:08;6.78;;;6.07;;
10565;SDS011;5331;48.148;16.326;2023-06-05T11:07:39;8.35;;;6.40;;
10565;SDS011;5331;48.148;16.326;2023-06-05T11:10:08;6.70;;;6.10;;
10565;SDS011;5331;48.148;16.326;2023-06-05T11:12:58;7.82;;;7.03;;
10565;SDS011;5331;48.148;16.326;2023-06-05T11:15:41;7.38;;;6.68;;
10565;SDS011;5331;48.148;16.326;2023-06-05T11:18:30;7.13;;;6.22;;
10565;SDS011;5331;48.148;16.326;2023-06-05T11:20:59;7.55;;;5.93;;
10565;SDS011;5331;48.148;16.326;2023-06-05T11:23:26;6.55;;;6.03;;
10565;SDS011;5331;48.148;16.326;2023-06-05T11:28:58;8.70;;;6.13;;
10565;SDS011;5331;48.148;16.326;2023-06-05T11:31:29;6.88;;;6.15;;
10565;SDS011;5331;48.148;16.326;2023-06-05T11:33:58;6.35;;;5.68;;
10565;SDS011;5331;48.148;16.326;2023-06-05T11:36:25;6.72;;;6.13;;
10565;SDS011;5331;48.148;16.326;2023-06-05T11:38:52;7.45;;;6.25;;
10565;SDS011;5331;48.148;16.326;2023-06-05T11:41:21;6.07;;;5.45;;
10565;SDS011;5331;48.148;16.326;2023-06-05T11:43:49;5.28;;;4.88;;
10565;SDS011;5331;48.148;16.326;2023-06-05T11:46:18;6.80;;;5.90;;
10565;SDS011;5331;48.148;16.326;2023-06-05T11:48:45;6.45;;;4.93;;
10565;SDS011;5331;48.148;16.326;2023-06-05T11:51:12;6.32;;;5.35;;
10565;SDS011;5331;48.148;16.326;2023-06-05T11:53:43;5.93;;;4.90;;
10565;SDS011;5331;48.148;16.326;2023-06-05T11:56:14;6.60;;;5.15;;
10565;SDS011;5331;48.148;16.326;2023-06-05T11:58:49;5.40;;;4.90;;
10565;SDS011;5331;48.148;16.326;2023-06-05T12:01:19;7.53;;;4.80;;
10565;SDS011;5331;48.148;16.326;2023-06-05T12:03:48;5.20;;;4.70;;
10565;SDS011;5331;48.148;16.326;2023-06-05T12:06:27;4.82;;;4.32;;
10565;SDS011;5331;48.148;16.326;2023-06-05T12:08:56;5.30;;;4.63;;
10565;SDS011;5331;48.148;16.326;2023-06-05T12:11:34;4.72;;;4.35;;
10565;SDS011;5331;48.148;16.326;2023-06-05T12:14:02;5.85;;;4.25;;
10565;SDS011;5331;48.148;16.326;2023-06-05T12:16:31;5.20;;;4.05;;
10565;SDS011;5331;48.148;16.326;2023-06-05T12:19:00;5.63;;;3.80;;
10565;SDS011;5331;48.148;16.326;2023-06-05T12:21:28;4.38;;;3.97;;
10565;SDS011;5331;48.148;16.326;2023-06-05T12:24:01;6.53;;;4.38;;
10565;SDS011;5331;48.148;16.326;2023-06-05T12:26:29;7.13;;;5.03;;
10565;SDS011;5331;48.148;16.326;2023-06-05T12:29:03;5.53;;;4.97;;
10565;SDS011;5331;48.148;16.326;2023-06-05T12:31:33;6.80;;;4.85;;
10565;SDS011;5331;48.148;16.326;2023-06-05T12:34:01;5.50;;;4.70;;
10565;SDS011;5331;48.148;16.326;2023-06-05T12:36:29;7.18;;;4.53;;
10565;SDS011;5331;48.148;16.326;2023-06-05T12:39:02;5.30;;;4.80;;
10565;SDS011;5331;48.148;16.326;2023-06-05T12:41:49;5.20;;;4.70;;
10565;SDS011;5331;48.148;16.326;2023-06-05T12:44:16;4.95;;;4.45;;
10565;SDS011;5331;48.148;16.326;2023-06-05T12:46:44;4.50;;;4.20;;
10565;SDS011;5331;48.148;16.326;2023-06-05T12:49:11;4.75;;;4.35;;
10565;SDS011;5331;48.148;16.326;2023-06-05T12:51:39;4.80;;;4.40;;
10565;SDS011;5331;48.148;16.326;2023-06-05T12:54:06;5.63;;;4.53;;
10565;SDS011;5331;48.148;16.326;2023-06-05T12:56:33;5.60;;;5.07;;
10565;SDS011;5331;48.148;16.326;2023-06-05T12:59:00;5.85;;;5.25;;
10565;SDS011;5331;48.148;16.326;2023-06-05T13:01:27;5.88;;;5.38;;
10565;SDS011;5331;48.148;16.326;2023-06-05T13:03:56;7.30;;;5.10;;
10565;SDS011;5331;48.148;16.326;2023-06-05T13:06:23;5.90;;;5.35;;
10565;SDS011;5331;48.148;16.326;2023-06-05T13:08:50;5.88;;;4.90;;
10565;SDS011;5331;48.148;16.326;2023-06-05T13:11:17;5.80;;;5.30;;
10565;SDS011;5331;48.148;16.326;2023-06-05T13:13:44;5.72;;;5.00;;
10565;SDS011;5331;48.148;16.326;2023-06-05T13:16:11;5.35;;;4.90;;
10565;SDS011;5331;48.148;16.326;2023-06-05T13:18:38;5.85;;;5.25;;
10565;SDS011;5331;48.148;16.326;2023-06-05T13:21:07;5.82;;;5.20;;
10565;SDS011;5331;48.148;16.326;2023-06-05T13:23:34;6.40;;;5.28;;
10565;SDS011;5331;48.148;16.326;2023-06-05T13:26:01;6.60;;;5.57;;
10565;SDS011;5331;48.148;16.326;2023-06-05T13:28:29;7.45;;;5.47;;
10565;SDS011;5331;48.148;16.326;2023-06-05T13:30:56;6.88;;;6.15;;
10565;SDS011;5331;48.148;16.326;2023-06-05T13:33:23;7.70;;;5.50;;
10565;SDS011;5331;48.148;16.326;2023-06-05T13:35:51;7.35;;;5.20;;
10565;SDS011;5331;48.148;16.326;2023-06-05T13:38:21;5.97;;;5.35;;
10565;SDS011;5331;48.148;16.326;2023-06-05T13:40:48;5.93;;;5.40;;
10565;SDS011;5331;48.148;16.326;2023-06-05T13:43:17;5.80;;;5.30;;
10565;SDS011;5331;48.148;16.326;2023-06-05T13:45:44;6.10;;;5.57;;
10565;SDS011;5331;48.148;16.326;2023-06-05T13:48:11;6.90;;;5.88;;
10565;SDS011;5331;48.148;16.326;2023-06-05T13:50:38;5.85;;;5.35;;
10565;SDS011;5331;48.148;16.326;2023-06-05T13:53:05;6.10;;;5.60;;
10565;SDS011;5331;48.148;16.326;2023-06-05T13:55:34;6.18;;;5.50;;
10565;SDS011;5331;48.148;16.326;2023-06-05T13:58:01;7.18;;;5.50;;
10565;SDS011;5331;48.148;16.326;2023-06-05T14:00:29;6.20;;;5.60;;
10565;SDS011;5331;48.148;16.326;2023-06-05T14:02:56;8.77;;;5.50;;
10565;SDS011;5331;48.148;16.326;2023-06-05T14:05:23;6.18;;;5.57;;
10565;SDS011;5331;48.148;16.326;2023-06-05T14:07:51;6.15;;;5.50;;
10565;SDS011;5331;48.148;16.326;2023-06-05T14:10:19;5.82;;;5.32;;
10565;SDS011;5331;48.148;16.326;2023-06-05T14:12:49;7.07;;;5.40;;
10565;SDS011;5331;48.148;16.326;2023-06-05T14:15:17;5.32;;;4.82;;
10565;SDS011;5331;48.148;16.326;2023-06-05T14:17:44;6.05;;;5.55;;
10565;SDS011;5331;48.148;16.326;2023-06-05T14:20:12;8.32;;;5.88;;
10565;SDS011;5331;48.148;16.326;2023-06-05T14:22:39;6.95;;;5.55;;
10565;SDS011;5331;48.148;16.326;2023-06-05T14:25:07;5.65;;;5.05;;
10565;SDS011;5331;48.148;16.326;2023-06-05T14:27:35;6.30;;;5.60;;
10565;SDS011;5331;48.148;16.326;2023-06-05T14:30:04;6.38;;;5.18;;
10565;SDS011;5331;48.148;16.326;2023-06-05T14:32:33;7.68;;;5.60;;
10565;SDS011;5331;48.148;16.326;2023-06-05T14:35:01;8.60;;;5.15;;
10565;SDS011;5331;48.148;16.326;2023-06-05T14:37:30;7.22;;;5.30;;
10565;SDS011;5331;48.148;16.326;2023-06-05T14:40:00;5.70;;;5.20;;
10565;SDS011;5331;48.148;16.326;2023-06-05T14:42:27;6.47;;;5.90;;
10565;SDS011;5331;48.148;16.326;2023-06-05T14:44:54;5.72;;;5.20;;
10565;SDS011;5331;48.148;16.326;2023-06-05T14:47:22;5.32;;;4.93;;
10565;SDS011;5331;48.148;16.326;2023-06-05T14:49:49;6.00;;;5.40;;
10565;SDS011;5331;48.148;16.326;2023-06-05T14:52:18;6.05;;;5.15;;
10565;SDS011;5331;48.148;16.326;2023-06-05T14:54:45;5.03;;;4.63;;
10565;SDS011;5331;48.148;16.326;2023-06-05T14:57:12;4.40;;;4.10;;
10565;SDS011;5331;48.148;16.326;2023-06-05T14:59:39;4.70;;;4.28;;
10565;SDS011;5331;48.148;16.326;2023-06-05T15:02:06;4.82;;;4.43;;
10565;SDS011;5331;48.148;16.326;2023-06-05T15:04:35;4.72;;;4.30;;
10565;SDS011;5331;48.148;16.326;2023-06-05T15:07:02;5.35;;;4.50;;